Cape Girardeau, MO

10:22 AM CDT on May 25, 2017 (GMT -0500)
Alma Schrader Area | | Change Station
Active Advisory: Flood Warning

Elev 470 ft 37.33 °N, 89.56 °W | Updated 24 seconds ago

Clear
Clear
66.9 °F
Feels Like 66.9 °F
N
3.2
Wind Variable Wind from WNW

Today
High -- | Low -- °F
--% Chance of Precip.
Yesterday
High -- | Low -- °F
Precip. -- in
Pressure 29.73 in
Visibility 10.0 miles
Clouds Few 3100 ft
Dew Point 56 °F
Humidity 67%
Rainfall 0.00 in
Snow Depth Not available.
5:42 AM 8:08 PM
Waning Crescent, 0% visible
METAR KCGI 251453Z 28006G16KT 10SM FEW031 19/11 A2974 RMK AO2 SLP068 T01890111 52015
Pressure 29.73 in
Visibility 10.0 miles
Clouds Few 3100 ft
Dew Point 56 °F
Humidity 67%
Rainfall 0.00 in
Snow Depth Not available.
5:42 AM 8:08 PM
Waning Crescent, 0% visible
METAR KCGI 251453Z 28006G16KT 10SM FEW031 19/11 A2974 RMK AO2 SLP068 T01890111 52015

Get Your Daily Forecast Email!

Thanks for signing up!

Be on the lookout for a verification email in your inbox.

You'll start receiving severe weather alerts in your inbox..

×

10-Day Weather Forecast

Almanac

Astronomy

May. 25, 2017 Rise Set
Actual Time
Civil Twilight
Nautical Twilight
Astronomical Twilight
Moon
Length of Visible Light
Length of Day
Tomorrow will be .
, % of the Moon is Illuminated

Today's Extremes

State Highs State Lows

Community

WunderPhotos

Category 6

Welcome to Category 6. This is the collective home for Weather Underground's featured writeups by Dr. Jeff Masters (right), Bob Henson (left), Chris Burt, and other regular contributors.

Nearby

Air Quality

  Air Quality AQ Index Pollutant
Not available.

Snow Depth

Station Depth Elevation

Earthquake Activity

City Distance Mag. Time & Date
Minimum magnitude displayed is 2.5.

Coastal Water Temperatures

Place Temperature

Stations

Nearby Weather Stations

Station Location Temp. Windchill Dew Point Humidity Wind Precip. Elev Updated Type
                   

Watches & Warnings

Flood Warning
Issued: 7:48 PM CDT May. 24, 2017 – National Weather Service

The Flood Warning continues for
the Mississippi River at Cape Girardeau
* until Friday June 02.
* At 7:30 PM Wednesday the stage was 36.2 feet.
* Flood stage is 32.0 feet.
* Minor flooding is occurring and moderate flooding is forecast.
* Forecast... the river will continue rising to near 37.0 feet by
Friday morning.
* Impact... at 38.0 feet... the flood gate at Broadway closes.


Lat... Lon 3769 8959 3769 8935 3744 8934 3725 8941
      3723 8959 3732 8963